sensor_id;sensor_type;location;lat;lon;timestamp;P1;durP1;ratioP1;P2;durP2;ratioP2
73266;SDS011;61495;53.400;7.608;2023-07-29T00:01:31;6.57;;;3.78;;
73266;SDS011;61495;53.400;7.608;2023-07-29T00:03:57;7.13;;;3.58;;
73266;SDS011;61495;53.400;7.608;2023-07-29T00:06:23;7.05;;;4.18;;
73266;SDS011;61495;53.400;7.608;2023-07-29T00:08:49;8.55;;;4.30;;
73266;SDS011;61495;53.400;7.608;2023-07-29T00:11:14;8.48;;;4.38;;
73266;SDS011;61495;53.400;7.608;2023-07-29T00:13:40;6.25;;;3.70;;
73266;SDS011;61495;53.400;7.608;2023-07-29T00:16:05;7.75;;;4.15;;
73266;SDS011;61495;53.400;7.608;2023-07-29T00:18:31;7.45;;;4.38;;
73266;SDS011;61495;53.400;7.608;2023-07-29T00:20:57;6.97;;;4.13;;
73266;SDS011;61495;53.400;7.608;2023-07-29T00:23:22;9.10;;;4.57;;
73266;SDS011;61495;53.400;7.608;2023-07-29T00:25:48;6.70;;;4.43;;
73266;SDS011;61495;53.400;7.608;2023-07-29T00:28:13;7.25;;;4.80;;
73266;SDS011;61495;53.400;7.608;2023-07-29T00:30:38;8.57;;;4.70;;
73266;SDS011;61495;53.400;7.608;2023-07-29T00:33:04;8.55;;;4.43;;
73266;SDS011;61495;53.400;7.608;2023-07-29T00:35:29;8.40;;;4.63;;
73266;SDS011;61495;53.400;7.608;2023-07-29T00:37:54;7.30;;;4.35;;
73266;SDS011;61495;53.400;7.608;2023-07-29T00:40:21;9.07;;;4.75;;
73266;SDS011;61495;53.400;7.608;2023-07-29T00:42:47;7.85;;;4.85;;
73266;SDS011;61495;53.400;7.608;2023-07-29T00:45:14;7.75;;;4.45;;
73266;SDS011;61495;53.400;7.608;2023-07-29T00:47:40;8.00;;;5.10;;
73266;SDS011;61495;53.400;7.608;2023-07-29T00:50:07;10.02;;;5.35;;
73266;SDS011;61495;53.400;7.608;2023-07-29T00:52:36;8.48;;;5.32;;
73266;SDS011;61495;53.400;7.608;2023-07-29T00:55:01;7.65;;;4.97;;
73266;SDS011;61495;53.400;7.608;2023-07-29T00:57:29;8.77;;;5.85;;
73266;SDS011;61495;53.400;7.608;2023-07-29T00:59:55;8.75;;;5.45;;
73266;SDS011;61495;53.400;7.608;2023-07-29T01:02:21;9.68;;;6.03;;
73266;SDS011;61495;53.400;7.608;2023-07-29T01:04:54;9.80;;;6.05;;
73266;SDS011;61495;53.400;7.608;2023-07-29T01:07:23;8.98;;;5.75;;
73266;SDS011;61495;53.400;7.608;2023-07-29T01:10:03;9.45;;;5.05;;
73266;SDS011;61495;53.400;7.608;2023-07-29T01:15:22;10.05;;;6.10;;
73266;SDS011;61495;53.400;7.608;2023-07-29T01:17:54;13.25;;;6.85;;
73266;SDS011;61495;53.400;7.608;2023-07-29T01:20:24;10.70;;;6.65;;
73266;SDS011;61495;53.400;7.608;2023-07-29T01:22:51;10.65;;;5.85;;
73266;SDS011;61495;53.400;7.608;2023-07-29T01:25:16;9.80;;;5.03;;
73266;SDS011;61495;53.400;7.608;2023-07-29T01:27:45;10.57;;;5.10;;
73266;SDS011;61495;53.400;7.608;2023-07-29T01:30:12;9.90;;;6.03;;
73266;SDS011;61495;53.400;7.608;2023-07-29T01:32:49;10.48;;;5.93;;
73266;SDS011;61495;53.400;7.608;2023-07-29T01:38:05;10.13;;;5.53;;
73266;SDS011;61495;53.400;7.608;2023-07-29T01:40:49;9.90;;;6.60;;
73266;SDS011;61495;53.400;7.608;2023-07-29T01:43:33;10.95;;;5.53;;
73266;SDS011;61495;53.400;7.608;2023-07-29T01:46:19;8.20;;;5.05;;
73266;SDS011;61495;53.400;7.608;2023-07-29T01:49:03;10.70;;;6.07;;
73266;SDS011;61495;53.400;7.608;2023-07-29T01:51:47;10.93;;;5.78;;
73266;SDS011;61495;53.400;7.608;2023-07-29T01:54:23;11.27;;;6.07;;
73266;SDS011;61495;53.400;7.608;2023-07-29T01:56:58;10.27;;;6.32;;
73266;SDS011;61495;53.400;7.608;2023-07-29T01:59:23;8.35;;;5.28;;
73266;SDS011;61495;53.400;7.608;2023-07-29T02:01:49;10.10;;;6.15;;
73266;SDS011;61495;53.400;7.608;2023-07-29T02:04:14;10.07;;;5.65;;
73266;SDS011;61495;53.400;7.608;2023-07-29T02:06:39;9.25;;;5.53;;
73266;SDS011;61495;53.400;7.608;2023-07-29T02:09:05;10.05;;;6.00;;
73266;SDS011;61495;53.400;7.608;2023-07-29T02:11:30;10.63;;;6.40;;
73266;SDS011;61495;53.400;7.608;2023-07-29T02:13:56;11.93;;;5.72;;
73266;SDS011;61495;53.400;7.608;2023-07-29T02:16:22;10.65;;;5.82;;
73266;SDS011;61495;53.400;7.608;2023-07-29T02:18:47;10.30;;;5.72;;
73266;SDS011;61495;53.400;7.608;2023-07-29T02:21:14;9.88;;;6.03;;
73266;SDS011;61495;53.400;7.608;2023-07-29T02:23:40;10.25;;;6.10;;
73266;SDS011;61495;53.400;7.608;2023-07-29T02:26:05;10.27;;;5.82;;
73266;SDS011;61495;53.400;7.608;2023-07-29T02:28:31;9.48;;;6.03;;
73266;SDS011;61495;53.400;7.608;2023-07-29T02:31:09;10.00;;;6.22;;
73266;SDS011;61495;53.400;7.608;2023-07-29T02:33:43;10.52;;;7.05;;
73266;SDS011;61495;53.400;7.608;2023-07-29T02:36:09;10.80;;;7.20;;
73266;SDS011;61495;53.400;7.608;2023-07-29T02:38:34;9.02;;;6.43;;
73266;SDS011;61495;53.400;7.608;2023-07-29T02:41:00;10.80;;;6.45;;
73266;SDS011;61495;53.400;7.608;2023-07-29T02:43:25;12.73;;;7.75;;
73266;SDS011;61495;53.400;7.608;2023-07-29T02:45:51;11.73;;;7.13;;
73266;SDS011;61495;53.400;7.608;2023-07-29T02:48:16;12.57;;;6.28;;
73266;SDS011;61495;53.400;7.608;2023-07-29T02:50:41;11.05;;;6.57;;
73266;SDS011;61495;53.400;7.608;2023-07-29T02:53:07;11.05;;;7.13;;
73266;SDS011;61495;53.400;7.608;2023-07-29T02:55:32;9.88;;;6.38;;
73266;SDS011;61495;53.400;7.608;2023-07-29T02:57:57;10.63;;;7.85;;
73266;SDS011;61495;53.400;7.608;2023-07-29T03:00:23;10.73;;;6.93;;
73266;SDS011;61495;53.400;7.608;2023-07-29T03:02:49;10.75;;;7.30;;
73266;SDS011;61495;53.400;7.608;2023-07-29T03:05:15;11.75;;;7.30;;
73266;SDS011;61495;53.400;7.608;2023-07-29T03:07:40;12.77;;;8.20;;
73266;SDS011;61495;53.400;7.608;2023-07-29T03:10:06;11.52;;;7.40;;
73266;SDS011;61495;53.400;7.608;2023-07-29T03:12:31;12.30;;;7.38;;
73266;SDS011;61495;53.400;7.608;2023-07-29T03:14:56;11.27;;;6.68;;
73266;SDS011;61495;53.400;7.608;2023-07-29T03:17:22;11.95;;;8.30;;
73266;SDS011;61495;53.400;7.608;2023-07-29T03:19:47;12.23;;;6.95;;
73266;SDS011;61495;53.400;7.608;2023-07-29T03:22:12;14.32;;;7.20;;
73266;SDS011;61495;53.400;7.608;2023-07-29T03:24:38;11.90;;;8.07;;
73266;SDS011;61495;53.400;7.608;2023-07-29T03:27:03;11.68;;;6.97;;
73266;SDS011;61495;53.400;7.608;2023-07-29T03:29:30;14.45;;;7.75;;
73266;SDS011;61495;53.400;7.608;2023-07-29T03:31:55;11.48;;;6.88;;
73266;SDS011;61495;53.400;7.608;2023-07-29T03:34:21;11.05;;;7.57;;
73266;SDS011;61495;53.400;7.608;2023-07-29T03:36:46;12.18;;;7.13;;
73266;SDS011;61495;53.400;7.608;2023-07-29T03:39:13;11.43;;;7.28;;
73266;SDS011;61495;53.400;7.608;2023-07-29T03:41:39;13.32;;;7.50;;
73266;SDS011;61495;53.400;7.608;2023-07-29T03:44:04;12.07;;;6.75;;
73266;SDS011;61495;53.400;7.608;2023-07-29T03:46:29;12.00;;;7.95;;
73266;SDS011;61495;53.400;7.608;2023-07-29T03:48:56;12.63;;;7.22;;
73266;SDS011;61495;53.400;7.608;2023-07-29T03:51:21;12.27;;;8.00;;
73266;SDS011;61495;53.400;7.608;2023-07-29T03:53:47;11.95;;;7.57;;
73266;SDS011;61495;53.400;7.608;2023-07-29T03:56:13;11.95;;;6.75;;
73266;SDS011;61495;53.400;7.608;2023-07-29T03:58:38;11.73;;;7.05;;
73266;SDS011;61495;53.400;7.608;2023-07-29T04:01:04;10.48;;;7.20;;
73266;SDS011;61495;53.400;7.608;2023-07-29T04:03:29;11.77;;;7.88;;
73266;SDS011;61495;53.400;7.608;2023-07-29T04:05:55;11.20;;;6.80;;
73266;SDS011;61495;53.400;7.608;2023-07-29T04:08:20;12.23;;;7.22;;
73266;SDS011;61495;53.400;7.608;2023-07-29T04:10:46;12.15;;;7.45;;
73266;SDS011;61495;53.400;7.608;2023-07-29T04:13:11;10.25;;;6.97;;
73266;SDS011;61495;53.400;7.608;2023-07-29T04:15:36;12.32;;;7.20;;
73266;SDS011;61495;53.400;7.608;2023-07-29T04:18:02;12.80;;;7.15;;
73266;SDS011;61495;53.400;7.608;2023-07-29T04:20:28;11.65;;;6.95;;
73266;SDS011;61495;53.400;7.608;2023-07-29T04:22:54;12.25;;;6.40;;
73266;SDS011;61495;53.400;7.608;2023-07-29T04:25:19;10.55;;;6.40;;
73266;SDS011;61495;53.400;7.608;2023-07-29T04:27:45;11.25;;;7.38;;
73266;SDS011;61495;53.400;7.608;2023-07-29T04:30:10;9.65;;;6.05;;
73266;SDS011;61495;53.400;7.608;2023-07-29T04:32:36;11.88;;;7.00;;
73266;SDS011;61495;53.400;7.608;2023-07-29T04:35:01;12.25;;;6.72;;
73266;SDS011;61495;53.400;7.608;2023-07-29T04:37:27;11.77;;;7.30;;
73266;SDS011;61495;53.400;7.608;2023-07-29T04:39:52;11.23;;;8.10;;
73266;SDS011;61495;53.400;7.608;2023-07-29T04:42:17;10.95;;;8.07;;
73266;SDS011;61495;53.400;7.608;2023-07-29T04:44:43;11.02;;;6.55;;
73266;SDS011;61495;53.400;7.608;2023-07-29T04:47:08;13.25;;;6.70;;
73266;SDS011;61495;53.400;7.608;2023-07-29T04:49:33;9.90;;;6.22;;
73266;SDS011;61495;53.400;7.608;2023-07-29T04:51:59;11.15;;;7.50;;
73266;SDS011;61495;53.400;7.608;2023-07-29T04:54:24;12.43;;;7.20;;
73266;SDS011;61495;53.400;7.608;2023-07-29T04:56:49;13.05;;;7.13;;
73266;SDS011;61495;53.400;7.608;2023-07-29T04:59:15;12.60;;;7.93;;
73266;SDS011;61495;53.400;7.608;2023-07-29T05:01:41;13.45;;;7.50;;
73266;SDS011;61495;53.400;7.608;2023-07-29T05:04:08;12.38;;;7.00;;
73266;SDS011;61495;53.400;7.608;2023-07-29T05:06:33;12.80;;;7.88;;
73266;SDS011;61495;53.400;7.608;2023-07-29T05:08:59;11.35;;;6.78;;
73266;SDS011;61495;53.400;7.608;2023-07-29T05:11:37;13.00;;;8.55;;
73266;SDS011;61495;53.400;7.608;2023-07-29T05:14:02;13.75;;;7.20;;
73266;SDS011;61495;53.400;7.608;2023-07-29T05:16:29;11.32;;;6.80;;
73266;SDS011;61495;53.400;7.608;2023-07-29T05:18:55;12.70;;;8.15;;
73266;SDS011;61495;53.400;7.608;2023-07-29T05:21:20;14.13;;;7.07;;
73266;SDS011;61495;53.400;7.608;2023-07-29T05:23:45;13.27;;;7.60;;
73266;SDS011;61495;53.400;7.608;2023-07-29T05:26:11;13.43;;;7.13;;
73266;SDS011;61495;53.400;7.608;2023-07-29T05:28:36;12.35;;;7.20;;
73266;SDS011;61495;53.400;7.608;2023-07-29T05:31:02;13.15;;;7.22;;
73266;SDS011;61495;53.400;7.608;2023-07-29T05:33:27;13.93;;;7.75;;
73266;SDS011;61495;53.400;7.608;2023-07-29T05:35:52;12.57;;;7.43;;
73266;SDS011;61495;53.400;7.608;2023-07-29T05:38:18;13.18;;;7.22;;
73266;SDS011;61495;53.400;7.608;2023-07-29T05:40:44;11.45;;;6.10;;
73266;SDS011;61495;53.400;7.608;2023-07-29T05:43:09;13.50;;;7.38;;
73266;SDS011;61495;53.400;7.608;2023-07-29T05:45:34;13.95;;;7.53;;
73266;SDS011;61495;53.400;7.608;2023-07-29T05:48:00;12.25;;;7.47;;
73266;SDS011;61495;53.400;7.608;2023-07-29T05:50:25;14.05;;;7.47;;
73266;SDS011;61495;53.400;7.608;2023-07-29T05:52:50;13.02;;;6.78;;
73266;SDS011;61495;53.400;7.608;2023-07-29T05:55:16;13.48;;;8.00;;
73266;SDS011;61495;53.400;7.608;2023-07-29T05:57:41;12.00;;;6.40;;
73266;SDS011;61495;53.400;7.608;2023-07-29T06:00:07;11.15;;;7.90;;
73266;SDS011;61495;53.400;7.608;2023-07-29T06:02:33;11.48;;;6.60;;
73266;SDS011;61495;53.400;7.608;2023-07-29T06:04:59;11.13;;;6.85;;
73266;SDS011;61495;53.400;7.608;2023-07-29T06:07:25;9.13;;;5.10;;
73266;SDS011;61495;53.400;7.608;2023-07-29T06:09:54;9.63;;;5.75;;
73266;SDS011;61495;53.400;7.608;2023-07-29T06:12:20;10.18;;;5.70;;
73266;SDS011;61495;53.400;7.608;2023-07-29T06:14:45;12.52;;;5.18;;
73266;SDS011;61495;53.400;7.608;2023-07-29T06:17:11;9.88;;;4.88;;
73266;SDS011;61495;53.400;7.608;2023-07-29T06:19:36;9.38;;;5.95;;
73266;SDS011;61495;53.400;7.608;2023-07-29T06:22:03;9.15;;;5.82;;
73266;SDS011;61495;53.400;7.608;2023-07-29T06:24:29;9.45;;;4.88;;
73266;SDS011;61495;53.400;7.608;2023-07-29T06:26:54;8.70;;;4.70;;
73266;SDS011;61495;53.400;7.608;2023-07-29T06:29:20;9.35;;;4.80;;
73266;SDS011;61495;53.400;7.608;2023-07-29T06:31:45;8.88;;;5.10;;
73266;SDS011;61495;53.400;7.608;2023-07-29T06:34:10;10.23;;;4.45;;
73266;SDS011;61495;53.400;7.608;2023-07-29T06:36:36;8.18;;;4.93;;
73266;SDS011;61495;53.400;7.608;2023-07-29T06:39:01;8.82;;;5.28;;
73266;SDS011;61495;53.400;7.608;2023-07-29T06:41:27;5.90;;;3.42;;
73266;SDS011;61495;53.400;7.608;2023-07-29T06:43:52;8.30;;;4.40;;
73266;SDS011;61495;53.400;7.608;2023-07-29T06:46:17;8.23;;;4.57;;
73266;SDS011;61495;53.400;7.608;2023-07-29T06:48:43;9.95;;;3.60;;
73266;SDS011;61495;53.400;7.608;2023-07-29T06:51:08;9.35;;;4.57;;
73266;SDS011;61495;53.400;7.608;2023-07-29T06:53:34;7.95;;;3.22;;
73266;SDS011;61495;53.400;7.608;2023-07-29T06:55:59;6.22;;;3.30;;
73266;SDS011;61495;53.400;7.608;2023-07-29T06:58:24;7.70;;;4.10;;
73266;SDS011;61495;53.400;7.608;2023-07-29T07:00:50;7.10;;;3.25;;
73266;SDS011;61495;53.400;7.608;2023-07-29T07:03:15;11.10;;;3.95;;
73266;SDS011;61495;53.400;7.608;2023-07-29T07:05:41;7.70;;;3.17;;
73266;SDS011;61495;53.400;7.608;2023-07-29T07:08:06;8.02;;;3.60;;
73266;SDS011;61495;53.400;7.608;2023-07-29T07:10:31;7.97;;;2.78;;
73266;SDS011;61495;53.400;7.608;2023-07-29T07:12:58;6.65;;;2.90;;
73266;SDS011;61495;53.400;7.608;2023-07-29T07:15:25;11.07;;;3.00;;
73266;SDS011;61495;53.400;7.608;2023-07-29T07:17:50;8.20;;;2.63;;
73266;SDS011;61495;53.400;7.608;2023-07-29T07:20:17;4.75;;;3.15;;
73266;SDS011;61495;53.400;7.608;2023-07-29T07:22:42;6.65;;;2.40;;
73266;SDS011;61495;53.400;7.608;2023-07-29T07:25:08;5.57;;;2.80;;
73266;SDS011;61495;53.400;7.608;2023-07-29T07:27:33;7.47;;;2.60;;
73266;SDS011;61495;53.400;7.608;2023-07-29T07:29:59;6.45;;;3.10;;
73266;SDS011;61495;53.400;7.608;2023-07-29T07:32:25;5.57;;;2.45;;
73266;SDS011;61495;53.400;7.608;2023-07-29T07:34:51;7.68;;;2.20;;
73266;SDS011;61495;53.400;7.608;2023-07-29T07:37:16;8.73;;;2.25;;
73266;SDS011;61495;53.400;7.608;2023-07-29T07:39:41;6.53;;;2.47;;
73266;SDS011;61495;53.400;7.608;2023-07-29T07:42:07;5.90;;;2.08;;
73266;SDS011;61495;53.400;7.608;2023-07-29T07:44:32;7.55;;;2.38;;
73266;SDS011;61495;53.400;7.608;2023-07-29T07:46:58;5.03;;;2.35;;
73266;SDS011;61495;53.400;7.608;2023-07-29T07:49:23;4.15;;;2.42;;
73266;SDS011;61495;53.400;7.608;2023-07-29T07:51:48;5.00;;;1.88;;
73266;SDS011;61495;53.400;7.608;2023-07-29T07:54:14;7.32;;;2.20;;
73266;SDS011;61495;53.400;7.608;2023-07-29T07:56:39;5.78;;;2.20;;
73266;SDS011;61495;53.400;7.608;2023-07-29T07:59:05;5.25;;;2.45;;
73266;SDS011;61495;53.400;7.608;2023-07-29T08:01:34;5.80;;;2.20;;
73266;SDS011;61495;53.400;7.608;2023-07-29T08:04:01;5.47;;;2.53;;
73266;SDS011;61495;53.400;7.608;2023-07-29T08:06:26;5.38;;;2.38;;
73266;SDS011;61495;53.400;7.608;2023-07-29T08:08:52;8.57;;;2.08;;
73266;SDS011;61495;53.400;7.608;2023-07-29T08:11:17;5.57;;;1.92;;
73266;SDS011;61495;53.400;7.608;2023-07-29T08:13:42;7.20;;;2.22;;
73266;SDS011;61495;53.400;7.608;2023-07-29T08:16:08;3.97;;;2.08;;
73266;SDS011;61495;53.400;7.608;2023-07-29T08:18:33;4.55;;;2.30;;
73266;SDS011;61495;53.400;7.608;2023-07-29T08:20:59;5.10;;;2.00;;
73266;SDS011;61495;53.400;7.608;2023-07-29T08:23:32;6.57;;;1.85;;
73266;SDS011;61495;53.400;7.608;2023-07-29T08:25:58;6.70;;;1.95;;
73266;SDS011;61495;53.400;7.608;2023-07-29T08:28:34;6.10;;;2.08;;
73266;SDS011;61495;53.400;7.608;2023-07-29T08:31:00;5.93;;;2.10;;
73266;SDS011;61495;53.400;7.608;2023-07-29T08:33:26;4.85;;;1.80;;
73266;SDS011;61495;53.400;7.608;2023-07-29T08:35:52;7.03;;;2.65;;
73266;SDS011;61495;53.400;7.608;2023-07-29T08:38:18;5.30;;;1.90;;
73266;SDS011;61495;53.400;7.608;2023-07-29T08:43:38;6.65;;;2.17;;
73266;SDS011;61495;53.400;7.608;2023-07-29T08:46:05;3.65;;;1.58;;
73266;SDS011;61495;53.400;7.608;2023-07-29T08:48:41;6.93;;;2.65;;
73266;SDS011;61495;53.400;7.608;2023-07-29T08:51:08;4.75;;;2.20;;
73266;SDS011;61495;53.400;7.608;2023-07-29T08:53:35;5.57;;;2.28;;
73266;SDS011;61495;53.400;7.608;2023-07-29T08:56:01;4.53;;;2.05;;
73266;SDS011;61495;53.400;7.608;2023-07-29T08:58:27;6.25;;;1.95;;
73266;SDS011;61495;53.400;7.608;2023-07-29T09:00:52;6.97;;;2.10;;
73266;SDS011;61495;53.400;7.608;2023-07-29T09:03:17;5.28;;;2.13;;
73266;SDS011;61495;53.400;7.608;2023-07-29T09:05:44;5.50;;;1.90;;
73266;SDS011;61495;53.400;7.608;2023-07-29T09:08:10;7.47;;;2.35;;
73266;SDS011;61495;53.400;7.608;2023-07-29T09:10:36;5.97;;;2.42;;
73266;SDS011;61495;53.400;7.608;2023-07-29T09:13:03;5.28;;;2.22;;
73266;SDS011;61495;53.400;7.608;2023-07-29T09:15:30;4.00;;;2.00;;
73266;SDS011;61495;53.400;7.608;2023-07-29T09:17:58;6.45;;;2.20;;
73266;SDS011;61495;53.400;7.608;2023-07-29T09:20:24;7.05;;;2.03;;
73266;SDS011;61495;53.400;7.608;2023-07-29T09:22:52;5.00;;;2.03;;
73266;SDS011;61495;53.400;7.608;2023-07-29T09:25:23;5.55;;;2.00;;
73266;SDS011;61495;53.400;7.608;2023-07-29T09:27:53;5.50;;;2.10;;
73266;SDS011;61495;53.400;7.608;2023-07-29T09:30:24;4.22;;;2.10;;
73266;SDS011;61495;53.400;7.608;2023-07-29T09:32:58;6.20;;;2.83;;
73266;SDS011;61495;53.400;7.608;2023-07-29T09:35:31;5.18;;;2.38;;
73266;SDS011;61495;53.400;7.608;2023-07-29T09:37:58;5.63;;;2.38;;
73266;SDS011;61495;53.400;7.608;2023-07-29T09:40:24;4.47;;;2.25;;
73266;SDS011;61495;53.400;7.608;2023-07-29T09:42:50;6.10;;;2.30;;
73266;SDS011;61495;53.400;7.608;2023-07-29T09:45:21;4.28;;;2.70;;
73266;SDS011;61495;53.400;7.608;2023-07-29T09:47:50;4.93;;;2.65;;
73266;SDS011;61495;53.400;7.608;2023-07-29T09:50:16;4.85;;;2.40;;
73266;SDS011;61495;53.400;7.608;2023-07-29T09:52:42;5.05;;;2.70;;
73266;SDS011;61495;53.400;7.608;2023-07-29T09:55:17;5.78;;;2.80;;
73266;SDS011;61495;53.400;7.608;2023-07-29T09:57:44;4.90;;;2.70;;
73266;SDS011;61495;53.400;7.608;2023-07-29T10:00:12;5.15;;;2.58;;
73266;SDS011;61495;53.400;7.608;2023-07-29T10:02:39;5.32;;;2.95;;
73266;SDS011;61495;53.400;7.608;2023-07-29T10:05:06;4.90;;;2.33;;
73266;SDS011;61495;53.400;7.608;2023-07-29T10:07:34;4.13;;;2.30;;
73266;SDS011;61495;53.400;7.608;2023-07-29T10:10:01;5.07;;;2.55;;
73266;SDS011;61495;53.400;7.608;2023-07-29T10:12:30;5.10;;;2.33;;
73266;SDS011;61495;53.400;7.608;2023-07-29T10:14:58;4.85;;;2.50;;
73266;SDS011;61495;53.400;7.608;2023-07-29T10:17:26;3.88;;;2.20;;
73266;SDS011;61495;53.400;7.608;2023-07-29T10:19:52;4.75;;;2.25;;
73266;SDS011;61495;53.400;7.608;2023-07-29T10:22:20;5.97;;;2.60;;
73266;SDS011;61495;53.400;7.608;2023-07-29T10:24:46;5.88;;;2.42;;
73266;SDS011;61495;53.400;7.608;2023-07-29T10:27:14;5.53;;;2.45;;
73266;SDS011;61495;53.400;7.608;2023-07-29T10:29:44;5.50;;;2.28;;
73266;SDS011;61495;53.400;7.608;2023-07-29T10:32:10;7.78;;;2.45;;
73266;SDS011;61495;53.400;7.608;2023-07-29T10:34:37;5.15;;;2.22;;
73266;SDS011;61495;53.400;7.608;2023-07-29T10:37:04;5.65;;;2.40;;
73266;SDS011;61495;53.400;7.608;2023-07-29T10:39:37;6.38;;;2.95;;
73266;SDS011;61495;53.400;7.608;2023-07-29T10:42:05;4.75;;;2.47;;
73266;SDS011;61495;53.400;7.608;2023-07-29T10:47:14;5.00;;;2.30;;
73266;SDS011;61495;53.400;7.608;2023-07-29T10:49:55;6.10;;;2.60;;
73266;SDS011;61495;53.400;7.608;2023-07-29T10:54:59;5.32;;;2.28;;
73266;SDS011;61495;53.400;7.608;2023-07-29T10:57:33;5.40;;;2.70;;
73266;SDS011;61495;53.400;7.608;2023-07-29T10:59:59;6.05;;;2.78;;
73266;SDS011;61495;53.400;7.608;2023-07-29T11:02:32;5.93;;;2.90;;
73266;SDS011;61495;53.400;7.608;2023-07-29T11:05:04;5.05;;;2.85;;
73266;SDS011;61495;53.400;7.608;2023-07-29T11:07:31;6.20;;;2.90;;
73266;SDS011;61495;53.400;7.608;2023-07-29T11:10:08;5.07;;;2.33;;
73266;SDS011;61495;53.400;7.608;2023-07-29T11:17:35;6.10;;;1.90;;
73266;SDS011;61495;53.400;7.608;2023-07-29T11:20:03;4.18;;;1.85;;
73266;SDS011;61495;53.400;7.608;2023-07-29T11:22:29;4.00;;;2.33;;
73266;SDS011;61495;53.400;7.608;2023-07-29T11:24:55;3.88;;;1.80;;
73266;SDS011;61495;53.400;7.608;2023-07-29T11:27:20;5.57;;;2.28;;
73266;SDS011;61495;53.400;7.608;2023-07-29T11:29:46;3.90;;;1.77;;
73266;SDS011;61495;53.400;7.608;2023-07-29T11:32:12;5.40;;;2.00;;
73266;SDS011;61495;53.400;7.608;2023-07-29T11:34:38;6.93;;;1.85;;
73266;SDS011;61495;53.400;7.608;2023-07-29T11:37:05;4.25;;;1.70;;
73266;SDS011;61495;53.400;7.608;2023-07-29T11:39:31;4.22;;;1.80;;
73266;SDS011;61495;53.400;7.608;2023-07-29T11:41:58;6.78;;;2.00;;
73266;SDS011;61495;53.400;7.608;2023-07-29T11:44:24;3.35;;;1.67;;
73266;SDS011;61495;53.400;7.608;2023-07-29T11:46:50;3.47;;;1.27;;
73266;SDS011;61495;53.400;7.608;2023-07-29T11:49:16;4.57;;;1.80;;
73266;SDS011;61495;53.400;7.608;2023-07-29T11:51:41;6.13;;;1.50;;
73266;SDS011;61495;53.400;7.608;2023-07-29T11:54:08;3.60;;;1.27;;
73266;SDS011;61495;53.400;7.608;2023-07-29T11:56:34;3.95;;;1.60;;
73266;SDS011;61495;53.400;7.608;2023-07-29T11:59:00;3.50;;;1.77;;
73266;SDS011;61495;53.400;7.608;2023-07-29T12:01:27;2.97;;;1.35;;
73266;SDS011;61495;53.400;7.608;2023-07-29T12:03:54;3.97;;;1.52;;
73266;SDS011;61495;53.400;7.608;2023-07-29T12:06:21;3.13;;;1.17;;
73266;SDS011;61495;53.400;7.608;2023-07-29T12:08:48;3.47;;;1.52;;
73266;SDS011;61495;53.400;7.608;2023-07-29T12:11:14;4.80;;;1.40;;
73266;SDS011;61495;53.400;7.608;2023-07-29T12:13:41;2.75;;;1.10;;
73266;SDS011;61495;53.400;7.608;2023-07-29T12:16:07;3.42;;;1.42;;
73266;SDS011;61495;53.400;7.608;2023-07-29T12:18:32;3.15;;;1.08;;
73266;SDS011;61495;53.400;7.608;2023-07-29T12:20:58;3.25;;;1.00;;
73266;SDS011;61495;53.400;7.608;2023-07-29T12:23:24;3.58;;;1.38;;
73266;SDS011;61495;53.400;7.608;2023-07-29T12:25:56;4.53;;;1.20;;
73266;SDS011;61495;53.400;7.608;2023-07-29T12:28:23;4.80;;;1.33;;
73266;SDS011;61495;53.400;7.608;2023-07-29T12:30:52;2.97;;;1.17;;
73266;SDS011;61495;53.400;7.608;2023-07-29T12:35:57;6.63;;;1.90;;
73266;SDS011;61495;53.400;7.608;2023-07-29T12:38:22;4.60;;;1.40;;
73266;SDS011;61495;53.400;7.608;2023-07-29T12:40:47;3.92;;;1.33;;
73266;SDS011;61495;53.400;7.608;2023-07-29T12:43:13;5.03;;;1.40;;
73266;SDS011;61495;53.400;7.608;2023-07-29T12:45:38;7.90;;;1.67;;
73266;SDS011;61495;53.400;7.608;2023-07-29T12:48:10;5.97;;;1.40;;
73266;SDS011;61495;53.400;7.608;2023-07-29T12:50:36;5.18;;;1.30;;
73266;SDS011;61495;53.400;7.608;2023-07-29T12:53:04;3.22;;;1.20;;
73266;SDS011;61495;53.400;7.608;2023-07-29T12:55:30;3.92;;;1.55;;
73266;SDS011;61495;53.400;7.608;2023-07-29T12:57:55;2.67;;;1.00;;
73266;SDS011;61495;53.400;7.608;2023-07-29T13:00:23;4.50;;;1.20;;
73266;SDS011;61495;53.400;7.608;2023-07-29T13:02:48;3.17;;;1.10;;
73266;SDS011;61495;53.400;7.608;2023-07-29T13:05:14;3.03;;;1.20;;
73266;SDS011;61495;53.400;7.608;2023-07-29T13:07:39;3.58;;;1.30;;
73266;SDS011;61495;53.400;7.608;2023-07-29T13:10:05;4.10;;;1.50;;
73266;SDS011;61495;53.400;7.608;2023-07-29T13:12:32;3.50;;;1.25;;
73266;SDS011;61495;53.400;7.608;2023-07-29T13:14:58;5.50;;;2.10;;
73266;SDS011;61495;53.400;7.608;2023-07-29T13:17:24;3.30;;;1.50;;
73266;SDS011;61495;53.400;7.608;2023-07-29T13:19:50;4.90;;;1.50;;
73266;SDS011;61495;53.400;7.608;2023-07-29T13:22:15;5.65;;;1.63;;
73266;SDS011;61495;53.400;7.608;2023-07-29T13:24:41;5.47;;;1.50;;
73266;SDS011;61495;53.400;7.608;2023-07-29T13:27:06;6.43;;;1.70;;
73266;SDS011;61495;53.400;7.608;2023-07-29T13:29:32;5.88;;;1.38;;
73266;SDS011;61495;53.400;7.608;2023-07-29T13:31:57;14.50;;;1.80;;
73266;SDS011;61495;53.400;7.608;2023-07-29T13:34:23;6.18;;;1.85;;
73266;SDS011;61495;53.400;7.608;2023-07-29T13:36:48;4.22;;;1.40;;
73266;SDS011;61495;53.400;7.608;2023-07-29T13:39:14;4.60;;;1.40;;
73266;SDS011;61495;53.400;7.608;2023-07-29T13:41:40;5.30;;;1.13;;
73266;SDS011;61495;53.400;7.608;2023-07-29T13:44:06;3.88;;;1.40;;
73266;SDS011;61495;53.400;7.608;2023-07-29T13:46:31;4.55;;;1.70;;
73266;SDS011;61495;53.400;7.608;2023-07-29T13:48:57;3.97;;;1.10;;
73266;SDS011;61495;53.400;7.608;2023-07-29T13:51:23;2.70;;;1.10;;
73266;SDS011;61495;53.400;7.608;2023-07-29T13:53:48;4.93;;;1.13;;
73266;SDS011;61495;53.400;7.608;2023-07-29T13:56:14;3.67;;;1.30;;
73266;SDS011;61495;53.400;7.608;2023-07-29T13:58:40;4.00;;;1.30;;
73266;SDS011;61495;53.400;7.608;2023-07-29T14:01:05;4.10;;;1.42;;
73266;SDS011;61495;53.400;7.608;2023-07-29T14:03:32;3.75;;;1.20;;
73266;SDS011;61495;53.400;7.608;2023-07-29T14:05:57;3.38;;;1.42;;
73266;SDS011;61495;53.400;7.608;2023-07-29T14:08:23;5.20;;;1.38;;
73266;SDS011;61495;53.400;7.608;2023-07-29T14:10:49;4.35;;;1.70;;
73266;SDS011;61495;53.400;7.608;2023-07-29T14:13:15;3.33;;;1.27;;
73266;SDS011;61495;53.400;7.608;2023-07-29T14:15:41;5.03;;;1.40;;
73266;SDS011;61495;53.400;7.608;2023-07-29T14:18:07;5.82;;;1.63;;
73266;SDS011;61495;53.400;7.608;2023-07-29T14:20:33;5.10;;;1.33;;
73266;SDS011;61495;53.400;7.608;2023-07-29T14:22:58;4.03;;;1.40;;
73266;SDS011;61495;53.400;7.608;2023-07-29T14:25:24;4.70;;;1.55;;
73266;SDS011;61495;53.400;7.608;2023-07-29T14:27:50;4.03;;;1.40;;
73266;SDS011;61495;53.400;7.608;2023-07-29T14:30:15;3.88;;;1.60;;
73266;SDS011;61495;53.400;7.608;2023-07-29T14:32:41;4.40;;;1.30;;
73266;SDS011;61495;53.400;7.608;2023-07-29T14:35:07;3.10;;;1.00;;
73266;SDS011;61495;53.400;7.608;2023-07-29T14:37:33;3.15;;;1.42;;
73266;SDS011;61495;53.400;7.608;2023-07-29T14:39:59;3.97;;;1.20;;
73266;SDS011;61495;53.400;7.608;2023-07-29T14:42:25;2.92;;;0.98;;
73266;SDS011;61495;53.400;7.608;2023-07-29T14:44:51;2.67;;;1.10;;
73266;SDS011;61495;53.400;7.608;2023-07-29T14:47:17;3.40;;;1.10;;
73266;SDS011;61495;53.400;7.608;2023-07-29T14:49:43;4.60;;;1.20;;
73266;SDS011;61495;53.400;7.608;2023-07-29T14:52:09;5.18;;;1.20;;
73266;SDS011;61495;53.400;7.608;2023-07-29T14:54:35;3.22;;;1.27;;
73266;SDS011;61495;53.400;7.608;2023-07-29T14:57:00;2.20;;;1.08;;
73266;SDS011;61495;53.400;7.608;2023-07-29T14:59:26;3.53;;;1.20;;
73266;SDS011;61495;53.400;7.608;2023-07-29T15:01:52;3.45;;;1.48;;